Time;durP1;ratioP1;P1;durP2;ratioP2;P2;SDS_P1;SDS_P2;PMS_P1;PMS_P2;Temp;Humidity;BMP_temperature;BMP_pressure;BME280_temperature;BME280_humidity;BME280_pressure;Samples;Min_cycle;Max_cycle;Signal;HPM_P1;HPM_P2
2023/09/08 00:04:55;;;;;;;7.80;3.95;;;;;;;21.92;47.87;100940.13;41982562;28;20445;-73
2023/09/08 00:24:56;;;;;;;5.68;4.13;;;;;;;22.01;48.11;100988.75;41989688;28;20123;-73
2023/09/08 00:44:56;;;;;;;7.03;4.47;;;;;;;22.08;48.53;100982.06;41987848;28;20053;-75
2023/09/08 01:04:59;;;;;;;4.70;4.10;;;;;;;21.62;48.58;100908.88;41979182;28;20051;-76
2023/09/08 01:25:27;;;;;;;5.22;4.18;;;;;;;21.83;48.95;100972.44;41976465;28;20408;-75
2023/09/08 01:45:27;;;;;;;5.13;4.35;;;;;;;21.55;49.85;100964.63;41986933;28;20110;-78
2023/09/08 02:05:27;;;;;;;5.43;4.40;;;;;;;21.50;50.27;100972.03;42015354;28;20105;-74
2023/09/08 02:25:29;;;;;;;8.20;4.90;;;;;;;21.11;50.65;100918.50;42013107;28;20122;-75
2023/09/08 02:45:30;;;;;;;7.03;4.70;;;;;;;21.09;51.24;100944.97;41986194;28;20040;-74
2023/09/08 03:05:31;;;;;;;7.53;4.60;;;;;;;21.06;51.16;100958.31;41997912;28;20520;-76
2023/09/08 03:25:32;;;;;;;6.47;4.40;;;;;;;21.12;51.23;100962.34;41990727;28;20559;-74
2023/09/08 03:45:32;;;;;;;7.00;5.00;;;;;;;21.00;51.28;100958.72;41976782;28;20085;-69
2023/09/08 04:05:33;;;;;;;6.95;4.68;;;;;;;22.71;46.93;100921.22;41952240;27;20044;-74
2023/09/08 04:25:34;;;;;;;8.38;4.43;;;;;;;22.88;48.85;100951.63;41978771;28;20492;-76
2023/09/08 04:45:34;;;;;;;14.32;4.13;;;;;;;23.18;48.10;100964.31;41968160;28;20048;-75
2023/09/08 05:05:35;;;;;;;10.75;4.30;;;;;;;23.34;47.88;100984.28;41995899;28;20468;-77
2023/09/08 05:25:36;;;;;;;29.63;8.02;;;;;;;23.26;47.55;100984.84;42034186;28;20094;-80
2023/09/08 05:45:36;;;;;;;16.98;6.25;;;;;;;23.30;47.11;100975.75;42088055;28;20165;-77
2023/09/08 06:05:37;;;;;;;12.93;5.30;;;;;;;23.12;47.13;100945.41;42044141;28;20040;-74
2023/09/08 06:25:37;;;;;;;11.50;5.40;;;;;;;23.40;47.06;100986.44;41968723;27;20040;-69
2023/09/08 06:45:39;;;;;;;9.40;5.20;;;;;;;22.46;49.51;100970.56;41981939;28;20068;-76
2023/09/08 07:05:40;;;;;;;7.93;5.50;;;;;;;21.78;50.18;100959.56;41972689;27;20052;-76
2023/09/08 07:25:45;;;;;;;6.82;5.03;;;;;;;23.10;48.10;100971.13;41982360;28;20052;-77
2023/09/08 07:45:45;;;;;;;7.70;4.93;;;;;;;23.14;47.31;100911.78;41988391;28;20044;-78
2023/09/08 08:05:47;;;;;;;8.65;5.63;;;;;;;23.47;47.79;100948.00;42014795;28;20036;-78
2023/09/08 08:25:49;;;;;;;8.23;5.47;;;;;;;23.55;48.03;100933.34;42037027;28;20035;-79
2023/09/08 08:45:50;;;;;;;9.73;6.53;;;;;;;23.81;48.14;100949.75;41995014;28;20499;-75
2023/09/08 09:05:51;;;;;;;7.90;5.75;;;;;;;23.72;47.55;100922.25;42029609;28;20089;-75
2023/09/08 09:25:52;;;;;;;9.43;6.30;;;;;;;23.83;47.19;100901.06;42040806;27;20044;-76
2023/09/08 09:45:53;;;;;;;14.60;6.82;;;;;;;23.99;47.77;100915.75;42095916;27;20077;-80
2023/09/08 10:05:54;;;;;;;12.25;6.22;;;;;;;24.13;47.22;100904.03;42054996;27;20570;-77
2023/09/08 10:25:59;;;;;;;9.50;5.50;;;;;;;24.44;47.34;100912.09;42052603;28;20036;-77
2023/09/08 10:46:08;;;;;;;7.72;5.03;;;;;;;24.43;46.33;100868.88;42085307;28;20040;-79
2023/09/08 11:06:10;;;;;;;5.07;3.75;;;;;;;24.59;44.65;100841.94;42079335;28;20165;-76
2023/09/08 11:26:17;;;;;;;22.23;5.45;;;;;;;25.35;45.54;100871.75;42007872;28;20033;-76
2023/09/08 11:46:19;;;;;;;4.35;3.60;;;;;;;25.38;42.65;100842.38;42017389;28;20051;-79
2023/09/08 12:06:30;;;;;;;5.07;3.63;;;;;;;25.51;40.54;100815.56;42002213;28;20067;-75
2023/09/08 12:26:30;;;;;;;11.05;3.60;;;;;;;25.45;39.10;100763.09;41981119;28;20787;-76
2023/09/08 12:46:38;;;;;;;7.75;3.70;;;;;;;25.76;38.55;100776.25;41978601;27;20098;-80
2023/09/08 13:06:38;;;;;;;4.60;3.88;;;;;;;25.77;37.94;100722.22;42045869;27;20049;-79
2023/09/08 13:26:39;;;;;;;4.05;3.42;;;;;;;26.11;36.58;100756.28;42047715;27;20037;-76
2023/09/08 13:46:39;;;;;;;4.90;3.50;;;;;;;26.20;36.87;100748.28;42034510;27;20057;-77
2023/09/08 14:06:40;;;;;;;3.97;3.50;;;;;;;26.28;36.58;100725.50;42026703;28;20442;-76
2023/09/08 14:26:41;;;;;;;10.73;3.85;;;;;;;26.36;37.16;100715.81;42020871;28;20119;-75
2023/09/08 14:46:41;;;;;;;19.52;4.00;;;;;;;26.18;39.86;100691.88;41999821;28;20153;-76
2023/09/08 15:06:42;;;;;;;4.70;3.17;;;;;;;26.05;40.27;100684.19;42033610;28;20032;-76
2023/09/08 15:26:45;;;;;;;6.22;3.78;;;;;;;25.94;40.88;100686.16;42035722;28;20032;-76
2023/09/08 15:46:46;;;;;;;4.53;3.00;;;;;;;25.81;41.49;100682.00;42027611;27;20044;-77
2023/09/08 16:06:46;;;;;;;4.95;2.92;;;;;;;25.83;41.65;100685.34;42039488;27;20044;-75
2023/09/08 16:26:47;;;;;;;3.40;2.90;;;;;;;25.61;41.76;100662.66;42031179;28;20133;-76
2023/09/08 16:46:50;;;;;;;3.35;2.75;;;;;;;25.59;41.77;100682.31;42017113;28;20044;-77
2023/09/08 17:06:51;;;;;;;4.65;3.10;;;;;;;25.39;42.48;100680.50;42023723;28;20045;-77
2023/09/08 17:26:52;;;;;;;2.85;2.53;;;;;;;25.26;43.09;100683.41;42025680;28;20044;-77
2023/09/08 17:46:53;;;;;;;4.70;2.90;;;;;;;25.31;42.86;100724.56;42050929;28;20048;-76
2023/09/08 18:06:53;;;;;;;3.13;2.70;;;;;;;25.21;43.00;100737.81;42043741;28;20044;-76
2023/09/08 18:26:55;;;;;;;2.80;2.40;;;;;;;25.12;43.26;100750.06;42037122;28;20044;-76
2023/09/08 18:47:02;;;;;;;3.17;2.42;;;;;;;24.84;43.59;100699.53;42022126;28;20115;-75
2023/09/08 19:07:04;;;;;;;2.70;2.47;;;;;;;24.69;43.84;100698.22;42023733;28;20044;-76
2023/09/08 19:27:05;;;;;;;3.20;2.53;;;;;;;24.91;44.06;100721.00;42018856;27;20048;-76
2023/09/08 19:47:06;;;;;;;2.90;2.53;;;;;;;24.79;43.85;100701.72;42034387;28;20114;-76
2023/09/08 20:07:07;;;;;;;3.10;2.55;;;;;;;24.69;44.17;100700.88;42017248;28;20044;-77
2023/09/08 20:27:10;;;;;;;2.88;2.58;;;;;;;24.76;44.03;100728.50;42020218;28;20108;-77
2023/09/08 20:47:11;;;;;;;3.58;2.42;;;;;;;24.82;44.48;100740.38;42024451;28;20059;-77
2023/09/08 21:07:11;;;;;;;3.40;2.60;;;;;;;24.82;44.12;100737.72;42046932;28;20050;-76
2023/09/08 21:27:12;;;;;;;8.25;3.17;;;;;;;24.34;44.45;100638.56;42014945;28;20504;-74
2023/09/08 21:47:12;;;;;;;7.05;3.50;;;;;;;24.78;44.05;100714.13;42000380;28;20074;-76
2023/09/08 22:07:13;;;;;;;6.43;3.33;;;;;;;24.79;44.21;100712.31;41990376;27;20158;-76
2023/09/08 22:27:14;;;;;;;7.90;3.50;;;;;;;24.82;44.74;100712.06;41989740;27;20044;-76
2023/09/08 22:47:15;;;;;;;5.35;3.28;;;;;;;24.86;44.49;100708.16;41984395;28;20036;-76
2023/09/08 23:07:16;;;;;;;6.35;3.63;;;;;;;24.82;44.87;100696.16;42014676;28;20044;-76
2023/09/08 23:27:18;;;;;;;4.43;3.50;;;;;;;24.88;44.94;100713.34;42012534;28;20040;-76
2023/09/08 23:47:18;;;;;;;5.05;3.40;;;;;;;24.99;45.10;100736.22;41996387;28;20132;-76
